sensor_id;sensor_type;location;lat;lon;timestamp;pressure;altitude;pressure_sealevel;temperature;humidity
7760;BME280;3924;48.830;9.262;2022-08-27T00:00:13;98307.19;;;20.60;80.07
7760;BME280;3924;48.830;9.262;2022-08-27T00:02:42;98313.13;;;20.62;80.67
7760;BME280;3924;48.830;9.262;2022-08-27T00:05:11;98314.34;;;20.65;79.97
7760;BME280;3924;48.830;9.262;2022-08-27T00:07:38;98316.75;;;20.66;80.10
7760;BME280;3924;48.830;9.262;2022-08-27T00:10:06;98318.72;;;20.66;80.26
7760;BME280;3924;48.830;9.262;2022-08-27T00:12:33;98311.56;;;20.65;80.23
7760;BME280;3924;48.830;9.262;2022-08-27T00:15:01;98316.09;;;20.73;80.30
7760;BME280;3924;48.830;9.262;2022-08-27T00:17:28;98312.97;;;20.74;80.21
7760;BME280;3924;48.830;9.262;2022-08-27T00:19:55;98312.50;;;20.72;80.35
7760;BME280;3924;48.830;9.262;2022-08-27T00:22:22;98319.19;;;20.71;80.00
7760;BME280;3924;48.830;9.262;2022-08-27T00:24:48;98315.34;;;20.76;80.36
7760;BME280;3924;48.830;9.262;2022-08-27T00:27:15;98322.53;;;20.81;80.41
7760;BME280;3924;48.830;9.262;2022-08-27T00:29:42;98320.09;;;20.79;80.39
7760;BME280;3924;48.830;9.262;2022-08-27T00:32:08;98320.97;;;20.83;80.59
7760;BME280;3924;48.830;9.262;2022-08-27T00:34:35;98317.44;;;20.83;80.44
7760;BME280;3924;48.830;9.262;2022-08-27T00:37:01;98313.81;;;20.79;80.38
7760;BME280;3924;48.830;9.262;2022-08-27T00:39:28;98315.84;;;20.82;80.62
7760;BME280;3924;48.830;9.262;2022-08-27T00:41:55;98320.56;;;20.81;80.46
7760;BME280;3924;48.830;9.262;2022-08-27T00:44:21;98316.94;;;20.77;80.54
7760;BME280;3924;48.830;9.262;2022-08-27T00:46:54;98322.00;;;20.75;80.77
7760;BME280;3924;48.830;9.262;2022-08-27T00:49:37;98319.25;;;20.75;80.52
7760;BME280;3924;48.830;9.262;2022-08-27T00:52:16;98316.63;;;20.82;80.72
7760;BME280;3924;48.830;9.262;2022-08-27T00:54:44;98313.13;;;20.85;80.68
7760;BME280;3924;48.830;9.262;2022-08-27T00:57:12;98321.84;;;20.87;80.45
7760;BME280;3924;48.830;9.262;2022-08-27T00:59:40;98314.69;;;20.83;81.06
7760;BME280;3924;48.830;9.262;2022-08-27T01:02:08;98320.19;;;20.83;80.59
7760;BME280;3924;48.830;9.262;2022-08-27T01:04:55;98316.94;;;20.77;80.59
7760;BME280;3924;48.830;9.262;2022-08-27T01:07:25;98312.88;;;20.71;80.87
7760;BME280;3924;48.830;9.262;2022-08-27T01:09:56;98311.28;;;20.70;80.85
7760;BME280;3924;48.830;9.262;2022-08-27T01:12:26;98312.88;;;20.71;80.86
7760;BME280;3924;48.830;9.262;2022-08-27T01:14:54;98310.13;;;20.71;80.87
7760;BME280;3924;48.830;9.262;2022-08-27T01:17:22;98305.78;;;20.70;80.86
7760;BME280;3924;48.830;9.262;2022-08-27T01:19:56;98307.69;;;20.66;80.82
7760;BME280;3924;48.830;9.262;2022-08-27T01:25:15;98302.09;;;20.62;81.10
7760;BME280;3924;48.830;9.262;2022-08-27T01:27:44;98305.22;;;20.61;81.28
7760;BME280;3924;48.830;9.262;2022-08-27T01:30:13;98309.47;;;20.58;81.44
7760;BME280;3924;48.830;9.262;2022-08-27T01:32:42;98312.63;;;20.57;81.27
7760;BME280;3924;48.830;9.262;2022-08-27T01:35:11;98303.63;;;20.60;81.47
7760;BME280;3924;48.830;9.262;2022-08-27T01:37:38;98305.22;;;20.61;81.37
7760;BME280;3924;48.830;9.262;2022-08-27T01:40:06;98304.84;;;20.62;81.25
7760;BME280;3924;48.830;9.262;2022-08-27T01:42:40;98305.66;;;20.63;81.49
7760;BME280;3924;48.830;9.262;2022-08-27T01:45:12;98300.94;;;20.63;81.37
7760;BME280;3924;48.830;9.262;2022-08-27T01:47:40;98297.66;;;20.58;81.29
7760;BME280;3924;48.830;9.262;2022-08-27T01:50:20;98306.81;;;20.62;81.60
7760;BME280;3924;48.830;9.262;2022-08-27T01:52:47;98293.75;;;20.59;81.59
7760;BME280;3924;48.830;9.262;2022-08-27T01:55:17;98301.72;;;20.64;81.51
7760;BME280;3924;48.830;9.262;2022-08-27T01:57:45;98300.56;;;20.65;81.31
7760;BME280;3924;48.830;9.262;2022-08-27T02:00:18;98291.59;;;20.68;81.54
7760;BME280;3924;48.830;9.262;2022-08-27T02:02:46;98299.56;;;20.73;81.34
7760;BME280;3924;48.830;9.262;2022-08-27T02:05:14;98300.69;;;20.72;81.74
7760;BME280;3924;48.830;9.262;2022-08-27T02:07:41;98289.31;;;20.73;81.34
7760;BME280;3924;48.830;9.262;2022-08-27T02:10:14;98296.91;;;20.80;81.23
7760;BME280;3924;48.830;9.262;2022-08-27T02:12:41;98290.16;;;20.77;81.16
7760;BME280;3924;48.830;9.262;2022-08-27T02:15:08;98290.13;;;20.74;81.42
7760;BME280;3924;48.830;9.262;2022-08-27T02:17:34;98294.47;;;20.75;81.42
7760;BME280;3924;48.830;9.262;2022-08-27T02:20:04;98293.28;;;20.76;81.34
7760;BME280;3924;48.830;9.262;2022-08-27T02:22:31;98283.16;;;20.80;81.48
7760;BME280;3924;48.830;9.262;2022-08-27T02:24:58;98287.50;;;20.81;81.16
7760;BME280;3924;48.830;9.262;2022-08-27T02:27:24;98286.63;;;20.77;81.47
7760;BME280;3924;48.830;9.262;2022-08-27T02:29:51;98282.28;;;20.76;81.43
7760;BME280;3924;48.830;9.262;2022-08-27T02:32:18;98295.63;;;20.74;81.56
7760;BME280;3924;48.830;9.262;2022-08-27T02:35:00;98297.22;;;20.75;81.76
7760;BME280;3924;48.830;9.262;2022-08-27T02:37:29;98290.63;;;20.80;81.49
7760;BME280;3924;48.830;9.262;2022-08-27T02:39:56;98292.13;;;20.77;81.50
7760;BME280;3924;48.830;9.262;2022-08-27T02:42:22;98296.44;;;20.74;81.88
7760;BME280;3924;48.830;9.262;2022-08-27T02:44:49;98294.03;;;20.73;81.72
7760;BME280;3924;48.830;9.262;2022-08-27T02:47:16;98293.59;;;20.71;81.71
7760;BME280;3924;48.830;9.262;2022-08-27T02:49:43;98295.50;;;20.67;81.59
7760;BME280;3924;48.830;9.262;2022-08-27T02:52:10;98294.63;;;20.63;81.71
7760;BME280;3924;48.830;9.262;2022-08-27T02:54:36;98300.13;;;20.63;81.90
7760;BME280;3924;48.830;9.262;2022-08-27T02:57:04;98303.69;;;20.63;81.92
7760;BME280;3924;48.830;9.262;2022-08-27T02:59:31;98305.72;;;20.66;81.75
7760;BME280;3924;48.830;9.262;2022-08-27T03:01:58;98302.59;;;20.68;81.80
7760;BME280;3924;48.830;9.262;2022-08-27T03:04:24;98295.38;;;20.60;81.81
7760;BME280;3924;48.830;9.262;2022-08-27T03:06:53;98290.44;;;20.49;81.87
7760;BME280;3924;48.830;9.262;2022-08-27T03:09:20;98298.28;;;20.47;82.09
7760;BME280;3924;48.830;9.262;2022-08-27T03:11:47;98293.41;;;20.41;82.26
7760;BME280;3924;48.830;9.262;2022-08-27T03:14:13;98293.31;;;20.37;82.06
7760;BME280;3924;48.830;9.262;2022-08-27T03:16:40;98302.81;;;20.40;82.29
7760;BME280;3924;48.830;9.262;2022-08-27T03:19:06;98295.66;;;20.35;82.40
7760;BME280;3924;48.830;9.262;2022-08-27T03:21:34;98297.97;;;20.33;82.26
7760;BME280;3924;48.830;9.262;2022-08-27T03:24:03;98304.56;;;20.29;82.49
7760;BME280;3924;48.830;9.262;2022-08-27T03:26:37;98309.22;;;20.25;82.64
7760;BME280;3924;48.830;9.262;2022-08-27T03:29:04;98313.56;;;20.26;82.74
7760;BME280;3924;48.830;9.262;2022-08-27T03:31:31;98292.19;;;20.19;82.66
7760;BME280;3924;48.830;9.262;2022-08-27T03:34:00;98304.22;;;20.11;82.81
7760;BME280;3924;48.830;9.262;2022-08-27T03:36:28;98299.84;;;20.10;82.69
7760;BME280;3924;48.830;9.262;2022-08-27T03:38:55;98299.13;;;20.13;82.96
7760;BME280;3924;48.830;9.262;2022-08-27T03:41:23;98299.13;;;20.13;83.02
7760;BME280;3924;48.830;9.262;2022-08-27T03:44:10;98296.91;;;20.18;82.68
7760;BME280;3924;48.830;9.262;2022-08-27T03:46:46;98296.31;;;20.09;82.88
7760;BME280;3924;48.830;9.262;2022-08-27T03:49:13;98296.94;;;20.03;82.87
7760;BME280;3924;48.830;9.262;2022-08-27T03:51:45;98293.78;;;20.01;83.01
7760;BME280;3924;48.830;9.262;2022-08-27T03:54:12;98302.03;;;20.01;83.03
7760;BME280;3924;48.830;9.262;2022-08-27T03:56:38;98288.25;;;20.01;83.10
7760;BME280;3924;48.830;9.262;2022-08-27T03:59:06;98288.22;;;19.97;83.03
7760;BME280;3924;48.830;9.262;2022-08-27T04:01:33;98292.88;;;19.97;83.33
7760;BME280;3924;48.830;9.262;2022-08-27T04:04:01;98297.16;;;19.94;83.28
7760;BME280;3924;48.830;9.262;2022-08-27T04:06:27;98290.72;;;19.86;83.32
7760;BME280;3924;48.830;9.262;2022-08-27T04:08:54;98288.09;;;19.74;83.22
7760;BME280;3924;48.830;9.262;2022-08-27T04:11:21;98289.97;;;19.70;83.63
7760;BME280;3924;48.830;9.262;2022-08-27T04:13:48;98294.97;;;19.64;83.25
7760;BME280;3924;48.830;9.262;2022-08-27T04:16:15;98290.97;;;19.62;83.55
7760;BME280;3924;48.830;9.262;2022-08-27T04:18:41;98293.00;;;19.65;83.56
7760;BME280;3924;48.830;9.262;2022-08-27T04:21:10;98286.78;;;19.68;83.12
7760;BME280;3924;48.830;9.262;2022-08-27T04:23:38;98294.75;;;19.73;84.27
7760;BME280;3924;48.830;9.262;2022-08-27T04:26:06;98299.97;;;19.78;83.67
7760;BME280;3924;48.830;9.262;2022-08-27T04:28:33;98294.75;;;19.73;82.64
7760;BME280;3924;48.830;9.262;2022-08-27T04:31:04;98300.25;;;19.73;83.35
7760;BME280;3924;48.830;9.262;2022-08-27T04:33:31;98295.47;;;19.70;83.63
7760;BME280;3924;48.830;9.262;2022-08-27T04:36:03;98295.47;;;19.70;83.74
7760;BME280;3924;48.830;9.262;2022-08-27T04:38:31;98299.09;;;19.74;82.98
7760;BME280;3924;48.830;9.262;2022-08-27T04:41:03;98300.25;;;19.73;83.70
7760;BME280;3924;48.830;9.262;2022-08-27T04:43:53;98304.59;;;19.74;83.35
7760;BME280;3924;48.830;9.262;2022-08-27T04:46:25;98301.41;;;19.72;83.65
7760;BME280;3924;48.830;9.262;2022-08-27T04:48:55;98301.69;;;19.67;83.67
7760;BME280;3924;48.830;9.262;2022-08-27T04:51:22;98302.47;;;19.67;83.64
7760;BME280;3924;48.830;9.262;2022-08-27T04:53:49;98296.63;;;19.69;83.52
7760;BME280;3924;48.830;9.262;2022-08-27T04:56:18;98302.28;;;19.76;83.61
7760;BME280;3924;48.830;9.262;2022-08-27T04:58:48;98301.94;;;19.78;83.84
7760;BME280;3924;48.830;9.262;2022-08-27T05:01:20;98304.69;;;19.78;83.70
7760;BME280;3924;48.830;9.262;2022-08-27T05:03:48;98301.63;;;19.83;83.61
7760;BME280;3924;48.830;9.262;2022-08-27T05:06:15;98307.22;;;19.86;83.66
7760;BME280;3924;48.830;9.262;2022-08-27T05:08:42;98300.56;;;19.87;83.77
7760;BME280;3924;48.830;9.262;2022-08-27T05:11:12;98304.91;;;19.88;83.48
7760;BME280;3924;48.830;9.262;2022-08-27T05:13:41;98304.47;;;19.86;83.73
7760;BME280;3924;48.830;9.262;2022-08-27T05:16:19;98309.19;;;19.86;83.60
7760;BME280;3924;48.830;9.262;2022-08-27T05:18:47;98302.53;;;19.87;83.69
7760;BME280;3924;48.830;9.262;2022-08-27T05:21:28;98308.13;;;19.90;83.83
7760;BME280;3924;48.830;9.262;2022-08-27T05:23:57;98302.63;;;19.90;83.77
7760;BME280;3924;48.830;9.262;2022-08-27T05:26:25;98304.91;;;19.88;83.57
7760;BME280;3924;48.830;9.262;2022-08-27T05:28:52;98292.31;;;19.87;83.89
7760;BME280;3924;48.830;9.262;2022-08-27T05:31:20;98298.31;;;19.93;83.92
7760;BME280;3924;48.830;9.262;2022-08-27T05:33:48;98297.25;;;19.98;83.85
7760;BME280;3924;48.830;9.262;2022-08-27T05:36:33;98290.88;;;19.93;83.86
7760;BME280;3924;48.830;9.262;2022-08-27T05:39:03;98289.19;;;19.89;83.83
7760;BME280;3924;48.830;9.262;2022-08-27T05:41:31;98295.94;;;19.91;83.93
7760;BME280;3924;48.830;9.262;2022-08-27T05:44:03;98293.72;;;19.97;83.88
7760;BME280;3924;48.830;9.262;2022-08-27T05:46:49;98292.25;;;20.03;83.75
7760;BME280;3924;48.830;9.262;2022-08-27T05:49:16;98286.81;;;20.07;83.75
7760;BME280;3924;48.830;9.262;2022-08-27T05:51:43;98296.94;;;20.03;83.71
7760;BME280;3924;48.830;9.262;2022-08-27T05:54:11;98301.13;;;19.97;83.56
7760;BME280;3924;48.830;9.262;2022-08-27T05:56:44;98303.47;;;19.94;83.94
7760;BME280;3924;48.830;9.262;2022-08-27T05:59:11;98305.06;;;19.95;83.99
7760;BME280;3924;48.830;9.262;2022-08-27T06:02:00;98305.50;;;19.98;83.78
7760;BME280;3924;48.830;9.262;2022-08-27T06:04:27;98306.31;;;19.98;84.02
7760;BME280;3924;48.830;9.262;2022-08-27T06:06:53;98304.34;;;19.99;83.92
7760;BME280;3924;48.830;9.262;2022-08-27T06:09:24;98313.03;;;20.01;83.87
7760;BME280;3924;48.830;9.262;2022-08-27T06:11:53;98311.44;;;20.00;84.05
7760;BME280;3924;48.830;9.262;2022-08-27T06:14:21;98315.34;;;19.99;84.04
7760;BME280;3924;48.830;9.262;2022-08-27T06:16:48;98314.91;;;19.97;84.00
7760;BME280;3924;48.830;9.262;2022-08-27T06:19:15;98305.84;;;19.96;84.13
7760;BME280;3924;48.830;9.262;2022-08-27T06:21:41;98308.97;;;19.94;83.99
7760;BME280;3924;48.830;9.262;2022-08-27T06:24:09;98312.97;;;19.97;84.23
7760;BME280;3924;48.830;9.262;2022-08-27T06:26:39;98310.28;;;20.01;84.02
7760;BME280;3924;48.830;9.262;2022-08-27T06:29:07;98312.75;;;20.06;84.17
7760;BME280;3924;48.830;9.262;2022-08-27T06:31:34;98309.28;;;20.09;84.06
7760;BME280;3924;48.830;9.262;2022-08-27T06:34:02;98315.22;;;20.11;84.12
7760;BME280;3924;48.830;9.262;2022-08-27T06:36:35;98317.63;;;20.12;84.07
7760;BME280;3924;48.830;9.262;2022-08-27T06:39:03;98313.41;;;20.18;83.73
7760;BME280;3924;48.830;9.262;2022-08-27T06:41:32;98315.81;;;20.20;83.87
7760;BME280;3924;48.830;9.262;2022-08-27T06:43:59;98322.81;;;20.17;84.06
7760;BME280;3924;48.830;9.262;2022-08-27T06:46:27;98325.13;;;20.15;83.96
7760;BME280;3924;48.830;9.262;2022-08-27T06:48:57;98328.25;;;20.14;83.91
7760;BME280;3924;48.830;9.262;2022-08-27T06:51:27;98327.38;;;20.10;83.99
7760;BME280;3924;48.830;9.262;2022-08-27T06:53:56;98325.78;;;20.09;84.14
7760;BME280;3924;48.830;9.262;2022-08-27T06:56:22;98328.25;;;20.14;83.80
7760;BME280;3924;48.830;9.262;2022-08-27T06:58:53;98331.44;;;20.16;83.96
7760;BME280;3924;48.830;9.262;2022-08-27T07:01:29;98329.13;;;20.18;83.89
7760;BME280;3924;48.830;9.262;2022-08-27T07:04:06;98331.53;;;20.19;83.96
7760;BME280;3924;48.830;9.262;2022-08-27T07:06:35;98323.63;;;20.18;84.03
7760;BME280;3924;48.830;9.262;2022-08-27T07:09:03;98324.50;;;20.22;84.24
7760;BME280;3924;48.830;9.262;2022-08-27T07:11:30;98324.91;;;20.24;83.84
7760;BME280;3924;48.830;9.262;2022-08-27T07:13:58;98318.28;;;20.25;84.26
7760;BME280;3924;48.830;9.262;2022-08-27T07:16:27;98321.88;;;20.29;83.84
7760;BME280;3924;48.830;9.262;2022-08-27T07:18:57;98325.94;;;20.35;83.63
7760;BME280;3924;48.830;9.262;2022-08-27T07:21:29;98324.06;;;20.39;83.85
7760;BME280;3924;48.830;9.262;2022-08-27T07:23:56;98329.13;;;20.37;83.59
7760;BME280;3924;48.830;9.262;2022-08-27T07:26:31;98329.72;;;20.27;83.41
7760;BME280;3924;48.830;9.262;2022-08-27T07:28:58;98334.69;;;20.21;83.80
7760;BME280;3924;48.830;9.262;2022-08-27T07:31:26;98333.91;;;20.21;83.87
7760;BME280;3924;48.830;9.262;2022-08-27T07:33:54;98326.44;;;20.21;83.94
7760;BME280;3924;48.830;9.262;2022-08-27T07:36:21;98339.13;;;20.26;83.83
7760;BME280;3924;48.830;9.262;2022-08-27T07:38:49;98340.50;;;20.36;84.08
7760;BME280;3924;48.830;9.262;2022-08-27T07:41:27;98339.78;;;20.39;83.61
7760;BME280;3924;48.830;9.262;2022-08-27T07:43:58;98336.81;;;20.28;83.92
7760;BME280;3924;48.830;9.262;2022-08-27T07:46:51;98352.16;;;20.29;83.73
7760;BME280;3924;48.830;9.262;2022-08-27T07:49:19;98354.22;;;20.32;84.11
7760;BME280;3924;48.830;9.262;2022-08-27T07:51:48;98352.16;;;20.29;83.79
7760;BME280;3924;48.830;9.262;2022-08-27T07:54:15;98354.56;;;20.31;83.88
7760;BME280;3924;48.830;9.262;2022-08-27T07:56:42;98347.44;;;20.30;83.97
7760;BME280;3924;48.830;9.262;2022-08-27T07:59:21;98356.97;;;20.32;83.93
7760;BME280;3924;48.830;9.262;2022-08-27T08:01:52;98354.50;;;20.27;83.73
7760;BME280;3924;48.830;9.262;2022-08-27T08:04:22;98353.59;;;20.23;84.11
7760;BME280;3924;48.830;9.262;2022-08-27T08:06:49;98357.09;;;20.20;84.29
7760;BME280;3924;48.830;9.262;2022-08-27T08:09:26;98357.53;;;20.22;84.15
7760;BME280;3924;48.830;9.262;2022-08-27T08:11:53;98364.56;;;20.19;83.74
7760;BME280;3924;48.830;9.262;2022-08-27T08:14:20;98365.63;;;20.15;84.28
7760;BME280;3924;48.830;9.262;2022-08-27T08:16:46;98366.00;;;20.13;84.49
7760;BME280;3924;48.830;9.262;2022-08-27T08:19:13;98376.38;;;20.20;84.47
7760;BME280;3924;48.830;9.262;2022-08-27T08:21:40;98376.38;;;20.20;84.51
7760;BME280;3924;48.830;9.262;2022-08-27T08:24:06;98366.78;;;20.14;84.23
7760;BME280;3924;48.830;9.262;2022-08-27T08:26:33;98374.47;;;20.05;84.39
7760;BME280;3924;48.830;9.262;2022-08-27T08:29:01;98376.75;;;20.03;84.90
7760;BME280;3924;48.830;9.262;2022-08-27T08:31:30;98378.00;;;20.05;85.16
7760;BME280;3924;48.830;9.262;2022-08-27T08:33:57;98377.56;;;20.03;85.00
7760;BME280;3924;48.830;9.262;2022-08-27T08:36:23;98385.31;;;19.98;85.11
7760;BME280;3924;48.830;9.262;2022-08-27T08:38:50;98385.84;;;19.87;85.10
7760;BME280;3924;48.830;9.262;2022-08-27T08:44:33;98386.50;;;19.81;85.41
7760;BME280;3924;48.830;9.262;2022-08-27T08:49:39;98382.09;;;19.95;85.40
7760;BME280;3924;48.830;9.262;2022-08-27T08:52:20;98383.06;;;20.03;85.96
7760;BME280;3924;48.830;9.262;2022-08-27T08:58:13;98391.84;;;20.09;85.64
7760;BME280;3924;48.830;9.262;2022-08-27T09:00:43;98391.84;;;20.09;85.83
7760;BME280;3924;48.830;9.262;2022-08-27T09:03:13;98398.34;;;20.01;85.99
7760;BME280;3924;48.830;9.262;2022-08-27T09:05:46;98396.38;;;20.01;86.00
7760;BME280;3924;48.830;9.262;2022-08-27T09:08:32;98395.59;;;20.01;85.86
7760;BME280;3924;48.830;9.262;2022-08-27T09:11:38;98403.22;;;20.07;85.90
7760;BME280;3924;48.830;9.262;2022-08-27T09:16:59;98395.06;;;20.11;85.88
7760;BME280;3924;48.830;9.262;2022-08-27T09:19:27;98396.03;;;20.03;85.67
7760;BME280;3924;48.830;9.262;2022-08-27T09:22:00;98393.22;;;19.99;86.20
7760;BME280;3924;48.830;9.262;2022-08-27T09:24:35;98397.03;;;19.94;85.87
7760;BME280;3924;48.830;9.262;2022-08-27T09:27:03;98390.38;;;19.95;86.24
7760;BME280;3924;48.830;9.262;2022-08-27T09:29:29;98397.28;;;20.05;86.21
7760;BME280;3924;48.830;9.262;2022-08-27T09:32:08;98387.94;;;20.10;86.51
7760;BME280;3924;48.830;9.262;2022-08-27T09:34:40;98392.72;;;20.13;86.37
7760;BME280;3924;48.830;9.262;2022-08-27T09:37:16;98390.50;;;20.18;86.60
7760;BME280;3924;48.830;9.262;2022-08-27T09:45:50;98390.41;;;20.15;86.53
7760;BME280;3924;48.830;9.262;2022-08-27T09:48:19;98387.94;;;20.10;86.61
7760;BME280;3924;48.830;9.262;2022-08-27T09:51:10;98390.41;;;20.15;86.69
7760;BME280;3924;48.830;9.262;2022-08-27T09:53:57;98382.31;;;20.22;86.51
7760;BME280;3924;48.830;9.262;2022-08-27T09:56:29;98380.63;;;20.17;86.68
7760;BME280;3924;48.830;9.262;2022-08-27T09:59:02;98385.69;;;20.15;87.00
7760;BME280;3924;48.830;9.262;2022-08-27T10:01:35;98382.16;;;20.15;86.68
7760;BME280;3924;48.830;9.262;2022-08-27T10:04:15;98380.13;;;20.12;86.91
7760;BME280;3924;48.830;9.262;2022-08-27T10:06:47;98383.31;;;20.14;87.15
7760;BME280;3924;48.830;9.262;2022-08-27T10:09:37;98390.94;;;20.20;87.42
7760;BME280;3924;48.830;9.262;2022-08-27T10:12:19;98385.84;;;20.22;86.77
7760;BME280;3924;48.830;9.262;2022-08-27T10:14:56;98383.19;;;20.26;87.20
7760;BME280;3924;48.830;9.262;2022-08-27T10:20:31;98375.06;;;20.33;87.02
7760;BME280;3924;48.830;9.262;2022-08-27T10:23:08;98382.88;;;20.31;87.39
7760;BME280;3924;48.830;9.262;2022-08-27T10:31:34;98388.38;;;20.31;87.49
7760;BME280;3924;48.830;9.262;2022-08-27T10:50:31;98397.00;;;20.45;87.33
7760;BME280;3924;48.830;9.262;2022-08-27T10:56:14;98408.50;;;20.51;87.28
7760;BME280;3924;48.830;9.262;2022-08-27T10:58:55;98408.44;;;20.47;86.84
7760;BME280;3924;48.830;9.262;2022-08-27T11:04:20;98409.78;;;20.38;87.26
7760;BME280;3924;48.830;9.262;2022-08-27T11:06:56;98408.13;;;20.33;87.46
7760;BME280;3924;48.830;9.262;2022-08-27T11:09:39;98415.13;;;20.31;87.41
7760;BME280;3924;48.830;9.262;2022-08-27T11:12:12;98422.16;;;20.28;87.43
7760;BME280;3924;48.830;9.262;2022-08-27T11:14:50;98409.03;;;20.21;88.45
7760;BME280;3924;48.830;9.262;2022-08-27T11:20:17;98418.09;;;20.22;87.68
7760;BME280;3924;48.830;9.262;2022-08-27T11:28:07;98412.03;;;20.32;87.66
7760;BME280;3924;48.830;9.262;2022-08-27T11:33:16;98407.75;;;20.35;88.54
7760;BME280;3924;48.830;9.262;2022-08-27T11:38:52;98412.38;;;20.46;87.97
7760;BME280;3924;48.830;9.262;2022-08-27T11:44:25;98411.03;;;20.40;88.26
7760;BME280;3924;48.830;9.262;2022-08-27T11:47:07;98403.56;;;20.41;87.62
7760;BME280;3924;48.830;9.262;2022-08-27T11:49:55;98405.28;;;20.45;87.08
7760;BME280;3924;48.830;9.262;2022-08-27T11:52:23;98403.66;;;20.44;87.86
7760;BME280;3924;48.830;9.262;2022-08-27T12:00:40;98401.19;;;20.59;86.98
7760;BME280;3924;48.830;9.262;2022-08-27T12:16:33;98384.59;;;20.74;87.46
7760;BME280;3924;48.830;9.262;2022-08-27T12:27:24;98389.16;;;20.86;88.16
7760;BME280;3924;48.830;9.262;2022-08-27T12:30:06;98388.03;;;20.91;87.14
7760;BME280;3924;48.830;9.262;2022-08-27T12:32:50;98384.13;;;20.92;86.89
7760;BME280;3924;48.830;9.262;2022-08-27T12:35:28;98383.84;;;20.97;87.81
7760;BME280;3924;48.830;9.262;2022-08-27T12:38:17;98380.00;;;21.01;88.05
7760;BME280;3924;48.830;9.262;2022-08-27T12:40:49;98386.22;;;20.98;87.20
7760;BME280;3924;48.830;9.262;2022-08-27T12:43:25;98389.72;;;20.95;87.37
7760;BME280;3924;48.830;9.262;2022-08-27T12:46:13;98381.16;;;21.00;87.66
7760;BME280;3924;48.830;9.262;2022-08-27T12:48:43;98386.06;;;21.11;87.55
7760;BME280;3924;48.830;9.262;2022-08-27T12:51:23;98388.56;;;21.19;87.15
7760;BME280;3924;48.830;9.262;2022-08-27T12:54:28;98386.41;;;21.28;87.46
7760;BME280;3924;48.830;9.262;2022-08-27T12:57:22;98383.28;;;21.30;86.93
7760;BME280;3924;48.830;9.262;2022-08-27T13:03:18;98373.47;;;21.55;86.60
7760;BME280;3924;48.830;9.262;2022-08-27T13:05:49;98376.75;;;21.65;86.48
7760;BME280;3924;48.830;9.262;2022-08-27T13:10:53;98374.72;;;21.88;85.92
7760;BME280;3924;48.830;9.262;2022-08-27T13:13:23;98366.13;;;21.93;86.09
7760;BME280;3924;48.830;9.262;2022-08-27T13:15:55;98370.16;;;21.99;86.11
7760;BME280;3924;48.830;9.262;2022-08-27T13:18:24;98369.41;;;22.02;85.83
7760;BME280;3924;48.830;9.262;2022-08-27T13:21:15;98376.69;;;22.10;86.11
7760;BME280;3924;48.830;9.262;2022-08-27T13:23:53;98371.25;;;22.18;85.84
7760;BME280;3924;48.830;9.262;2022-08-27T13:26:24;98376.78;;;22.18;85.68
7760;BME280;3924;48.830;9.262;2022-08-27T13:28:52;98374.00;;;22.18;85.59
7760;BME280;3924;48.830;9.262;2022-08-27T13:31:21;98379.09;;;22.16;85.75
7760;BME280;3924;48.830;9.262;2022-08-27T13:33:49;98371.94;;;22.11;85.58
7760;BME280;3924;48.830;9.262;2022-08-27T13:36:30;98372.63;;;22.04;85.56
7760;BME280;3924;48.830;9.262;2022-08-27T13:39:02;98374.94;;;22.02;85.28
7760;BME280;3924;48.830;9.262;2022-08-27T13:41:33;98371.34;;;21.98;85.63
7760;BME280;3924;48.830;9.262;2022-08-27T13:44:11;98366.09;;;21.90;85.95
7760;BME280;3924;48.830;9.262;2022-08-27T13:47:04;98373.13;;;21.87;85.67
7760;BME280;3924;48.830;9.262;2022-08-27T13:49:35;98369.22;;;21.88;85.98
7760;BME280;3924;48.830;9.262;2022-08-27T13:52:28;98358.97;;;21.89;86.22
7760;BME280;3924;48.830;9.262;2022-08-27T13:55:22;98364.84;;;21.87;85.60
7760;BME280;3924;48.830;9.262;2022-08-27T13:57:50;98374.31;;;21.86;85.76
7760;BME280;3924;48.830;9.262;2022-08-27T14:00:23;98364.38;;;21.81;85.61
7760;BME280;3924;48.830;9.262;2022-08-27T14:02:50;98362.00;;;21.80;85.78
7760;BME280;3924;48.830;9.262;2022-08-27T14:07:57;98357.47;;;21.95;85.53
7760;BME280;3924;48.830;9.262;2022-08-27T14:10:34;98364.00;;;22.09;85.64
7760;BME280;3924;48.830;9.262;2022-08-27T14:13:05;98353.13;;;22.20;84.78
7760;BME280;3924;48.830;9.262;2022-08-27T14:15:41;98354.78;;;22.25;85.33
7760;BME280;3924;48.830;9.262;2022-08-27T14:18:30;98351.66;;;22.30;85.00
7760;BME280;3924;48.830;9.262;2022-08-27T14:21:17;98357.63;;;22.32;84.85
7760;BME280;3924;48.830;9.262;2022-08-27T14:23:44;98355.59;;;22.29;84.84
7760;BME280;3924;48.830;9.262;2022-08-27T14:26:12;98352.41;;;22.27;85.04
7760;BME280;3924;48.830;9.262;2022-08-27T14:28:39;98351.56;;;22.23;84.96
7760;BME280;3924;48.830;9.262;2022-08-27T14:31:06;98354.59;;;22.10;84.73
7760;BME280;3924;48.830;9.262;2022-08-27T14:33:32;98351.38;;;22.08;85.07
7760;BME280;3924;48.830;9.262;2022-08-27T14:35:59;98356.91;;;22.08;85.34
7760;BME280;3924;48.830;9.262;2022-08-27T14:38:27;98347.88;;;22.11;85.04
7760;BME280;3924;48.830;9.262;2022-08-27T14:41:01;98350.66;;;22.11;85.05
7760;BME280;3924;48.830;9.262;2022-08-27T14:43:32;98348.28;;;22.10;85.16
7760;BME280;3924;48.830;9.262;2022-08-27T14:46:01;98337.13;;;22.06;85.10
7760;BME280;3924;48.830;9.262;2022-08-27T14:48:30;98341.78;;;22.02;84.87
7760;BME280;3924;48.830;9.262;2022-08-27T14:50:59;98344.56;;;22.02;84.62
7760;BME280;3924;48.830;9.262;2022-08-27T14:53:28;98348.50;;;22.01;85.00
7760;BME280;3924;48.830;9.262;2022-08-27T14:55:55;98350.47;;;22.01;84.98
7760;BME280;3924;48.830;9.262;2022-08-27T14:58:24;98347.22;;;21.95;84.90
7760;BME280;3924;48.830;9.262;2022-08-27T15:00:51;98350.44;;;21.97;84.89
7760;BME280;3924;48.830;9.262;2022-08-27T15:03:21;98349.25;;;21.98;85.03
7760;BME280;3924;48.830;9.262;2022-08-27T15:05:54;98352.00;;;21.98;84.80
7760;BME280;3924;48.830;9.262;2022-08-27T15:08:22;98355.19;;;22.00;84.64
7760;BME280;3924;48.830;9.262;2022-08-27T15:10:57;98351.81;;;22.10;84.79
7760;BME280;3924;48.830;9.262;2022-08-27T15:13:24;98350.69;;;22.15;84.25
7760;BME280;3924;48.830;9.262;2022-08-27T15:15:51;98351.06;;;22.14;84.55
7760;BME280;3924;48.830;9.262;2022-08-27T15:18:18;98351.94;;;22.21;84.16
7760;BME280;3924;48.830;9.262;2022-08-27T15:20:46;98351.31;;;22.31;84.29
7760;BME280;3924;48.830;9.262;2022-08-27T15:23:13;98350.34;;;22.50;83.70
7760;BME280;3924;48.830;9.262;2022-08-27T15:25:43;98347.66;;;22.57;83.58
7760;BME280;3924;48.830;9.262;2022-08-27T15:28:10;98345.72;;;22.61;83.25